createdAt,value
2019-02-11T00:00:02.203Z,28.60
2019-02-11T00:02:43.705Z,28.60
2019-02-11T00:05:23.199Z,28.60
2019-02-11T00:08:03.164Z,28.60
2019-02-11T00:10:43.494Z,28.60
2019-02-11T00:13:25.206Z,28.60
2019-02-11T00:16:05.077Z,28.60
2019-02-11T00:18:43.970Z,28.60
2019-02-11T00:21:23.013Z,28.60
2019-02-11T00:24:01.970Z,28.70
2019-02-11T00:26:40.714Z,28.70
2019-02-11T00:29:20.511Z,28.60
2019-02-11T00:31:59.412Z,28.70
2019-02-11T00:34:39.964Z,28.80
2019-02-11T00:37:19.059Z,29.00
2019-02-11T00:39:59.163Z,28.90
2019-02-11T00:42:39.103Z,28.80
2019-02-11T00:45:18.510Z,28.90
2019-02-11T00:47:58.379Z,29.10
2019-02-11T00:50:37.668Z,29.00
2019-02-11T00:53:16.650Z,29.00
2019-02-11T00:55:55.558Z,28.90
2019-02-11T00:58:35.456Z,29.00
2019-02-11T01:01:13.795Z,29.20
2019-02-11T01:03:52.218Z,29.10
2019-02-11T01:06:39.697Z,29.00
2019-02-11T01:09:19.016Z,29.10
2019-02-11T01:11:57.913Z,29.30
2019-02-11T01:14:38.175Z,29.40
2019-02-11T01:17:20.352Z,29.50
2019-02-11T01:19:58.984Z,29.40
2019-02-11T01:22:39.204Z,29.40
2019-02-11T01:25:17.877Z,29.40
2019-02-11T01:27:57.003Z,29.70
2019-02-11T01:30:35.764Z,29.60
2019-02-11T01:33:14.415Z,29.50
2019-02-11T01:35:53.054Z,29.50
2019-02-11T01:38:32.450Z,29.70
2019-02-11T01:41:11.208Z,29.90
2019-02-11T01:43:49.652Z,30.00
2019-02-11T01:46:28.341Z,30.00
2019-02-11T01:49:07.769Z,30.00
2019-02-11T01:51:46.868Z,30.20
2019-02-11T01:54:25.982Z,30.30
2019-02-11T01:57:04.803Z,30.40
2019-02-11T01:59:44.025Z,30.30
2019-02-11T02:02:23.145Z,30.20
2019-02-11T02:05:05.615Z,30.20
2019-02-11T02:07:45.538Z,30.40
2019-02-11T02:10:24.426Z,30.50
2019-02-11T02:13:04.649Z,30.50
2019-02-11T02:15:44.212Z,30.50
2019-02-11T02:18:23.640Z,30.70
2019-02-11T02:21:02.839Z,30.80
2019-02-11T02:23:42.018Z,30.80
2019-02-11T02:26:22.752Z,30.50
2019-02-11T02:29:04.723Z,30.90
2019-02-11T02:31:43.872Z,30.80
2019-02-11T02:34:24.359Z,31.00
2019-02-11T02:37:03.517Z,30.90
2019-02-11T02:39:44.352Z,30.80
2019-02-11T02:42:24.259Z,31.00
2019-02-11T02:45:03.075Z,31.10
2019-02-11T02:47:42.437Z,31.30
2019-02-11T02:50:21.410Z,31.30
2019-02-11T02:53:01.487Z,30.90
2019-02-11T02:55:40.744Z,31.20
2019-02-11T02:58:20.131Z,31.20
2019-02-11T03:00:59.199Z,30.90
2019-02-11T03:03:38.803Z,30.90
2019-02-11T03:06:17.639Z,30.80
2019-02-11T03:08:56.638Z,31.10
2019-02-11T03:11:35.693Z,31.10
2019-02-11T03:14:17.705Z,30.80
2019-02-11T03:16:56.386Z,30.60
2019-02-11T03:19:35.443Z,30.80
2019-02-11T03:22:14.499Z,31.10
2019-02-11T03:24:53.708Z,31.30
2019-02-11T03:27:33.928Z,31.30
2019-02-11T03:30:14.521Z,31.70
2019-02-11T03:32:58.668Z,31.90
2019-02-11T03:35:37.625Z,32.40
2019-02-11T03:38:16.716Z,32.40
2019-02-11T03:40:55.692Z,32.30
2019-02-11T03:43:34.511Z,32.30
2019-02-11T03:46:13.651Z,32.60
2019-02-11T03:48:55.417Z,32.80
2019-02-11T03:51:34.782Z,32.80
2019-02-11T03:54:13.759Z,33.10
2019-02-11T03:56:52.778Z,33.20
2019-02-11T03:59:31.982Z,33.30
2019-02-11T04:02:11.201Z,33.40
2019-02-11T04:04:50.450Z,33.40
2019-02-11T04:07:29.565Z,33.40
2019-02-11T04:10:09.119Z,33.20
2019-02-11T04:12:48.851Z,33.20
2019-02-11T04:15:28.105Z,32.80
2019-02-11T04:18:07.333Z,32.50
2019-02-11T04:20:48.669Z,32.00
2019-02-11T04:23:30.291Z,31.60
2019-02-11T04:26:09.582Z,31.60
2019-02-11T04:28:48.838Z,31.50
2019-02-11T04:31:27.917Z,31.60
2019-02-11T04:34:07.190Z,31.50
2019-02-11T04:36:47.382Z,31.50
2019-02-11T04:39:26.670Z,31.60
2019-02-11T04:42:05.957Z,31.60
2019-02-11T04:44:45.340Z,31.40
2019-02-11T04:47:24.493Z,31.40
2019-02-11T04:50:03.816Z,31.60
2019-02-11T04:52:44.581Z,32.00
2019-02-11T04:55:27.689Z,32.10
2019-02-11T04:58:07.923Z,32.20
2019-02-11T05:00:48.224Z,32.40
2019-02-11T05:03:28.166Z,32.40
2019-02-11T05:06:07.908Z,32.70
2019-02-11T05:08:53.362Z,32.70
2019-02-11T05:11:34.429Z,32.60
2019-02-11T05:14:13.670Z,32.30
2019-02-11T05:16:52.763Z,32.80
2019-02-11T05:19:31.842Z,33.10
2019-02-11T05:22:11.062Z,33.00
2019-02-11T05:24:51.252Z,33.20
2019-02-11T05:27:30.537Z,33.00
2019-02-11T05:30:12.204Z,33.00
2019-02-11T05:32:51.542Z,33.10
2019-02-11T05:35:30.971Z,33.00
2019-02-11T05:38:11.749Z,32.80
2019-02-11T05:40:50.714Z,32.70
2019-02-11T05:43:31.090Z,32.80
2019-02-11T05:46:10.101Z,32.50
2019-02-11T05:48:49.217Z,32.60
2019-02-11T05:51:28.262Z,32.30
2019-02-11T05:54:08.226Z,32.00
2019-02-11T05:56:47.440Z,32.70
2019-02-11T05:59:26.711Z,33.30
2019-02-11T06:02:06.025Z,32.90
2019-02-11T06:04:46.612Z,32.80
2019-02-11T06:07:25.733Z,33.60
2019-02-11T06:10:05.408Z,34.10
2019-02-11T06:12:44.992Z,33.70
2019-02-11T06:15:24.363Z,33.20
2019-02-11T06:18:03.480Z,33.20
2019-02-11T06:20:42.656Z,33.60
2019-02-11T06:23:23.018Z,33.80
2019-02-11T06:26:01.902Z,34.10
2019-02-11T06:28:40.795Z,34.40
2019-02-11T06:31:20.910Z,33.40
2019-02-11T06:34:00.041Z,33.00
2019-02-11T06:36:41.075Z,32.80
2019-02-11T06:39:21.239Z,32.30
2019-02-11T06:42:00.432Z,32.00
2019-02-11T06:44:39.725Z,32.30
2019-02-11T06:47:22.966Z,32.80
2019-02-11T06:50:01.672Z,33.00
2019-02-11T06:52:41.885Z,33.00
2019-02-11T06:55:26.271Z,33.20
2019-02-11T06:58:05.458Z,33.80
2019-02-11T07:00:44.469Z,33.80
2019-02-11T07:03:23.667Z,33.60
2019-02-11T07:06:02.582Z,33.70
2019-02-11T07:08:43.110Z,33.00
2019-02-11T07:11:22.373Z,33.30
2019-02-11T07:14:04.990Z,34.00
2019-02-11T07:16:44.509Z,34.30
2019-02-11T07:19:23.539Z,33.80
2019-02-11T07:22:03.097Z,33.80
2019-02-11T07:24:42.642Z,34.00
2019-02-11T07:27:21.559Z,33.70
2019-02-11T07:30:01.766Z,34.00
2019-02-11T07:32:42.902Z,34.10
2019-02-11T07:35:22.602Z,34.40
2019-02-11T07:38:02.908Z,34.70
2019-02-11T07:40:42.999Z,35.00
2019-02-11T07:43:26.098Z,35.10
2019-02-11T07:46:15.436Z,34.90
2019-02-11T07:48:54.925Z,35.20
2019-02-11T07:51:41.975Z,34.30
2019-02-11T07:54:14.668Z,34.30
2019-02-11T07:56:53.887Z,34.60
2019-02-11T07:59:33.293Z,34.60
2019-02-11T08:02:12.905Z,34.60
2019-02-11T08:04:52.192Z,34.10
2019-02-11T08:07:31.268Z,33.80
2019-02-11T08:10:10.196Z,33.70
2019-02-11T08:12:50.173Z,33.80
2019-02-11T08:15:29.624Z,34.10
2019-02-11T08:18:09.872Z,33.70
2019-02-11T08:20:50.091Z,33.60
2019-02-11T08:23:29.388Z,33.20
2019-02-11T08:26:12.707Z,33.30
2019-02-11T08:28:52.028Z,33.30
2019-02-11T08:31:32.863Z,33.00
2019-02-11T08:34:14.166Z,32.60
2019-02-11T08:36:54.184Z,32.80
2019-02-11T08:39:33.694Z,32.90
2019-02-11T08:42:13.596Z,32.50
2019-02-11T08:44:53.155Z,32.50
2019-02-11T08:47:32.508Z,32.20
2019-02-11T08:50:12.873Z,32.10
2019-02-11T08:52:54.574Z,32.40
2019-02-11T08:55:33.880Z,32.30
2019-02-11T08:58:13.107Z,32.20
2019-02-11T09:00:52.217Z,31.90
2019-02-11T09:03:31.635Z,31.80
2019-02-11T09:06:11.984Z,31.90
2019-02-11T09:08:51.171Z,32.00
2019-02-11T09:11:31.451Z,32.10
2019-02-11T09:14:10.983Z,32.10
2019-02-11T09:16:50.549Z,32.10
2019-02-11T09:19:30.334Z,32.10
2019-02-11T09:22:10.103Z,31.70
2019-02-11T09:38:13.463Z,31.40
2019-02-11T09:40:53.295Z,31.60
2019-02-11T09:43:32.440Z,31.50
2019-02-11T09:46:14.594Z,31.20
2019-02-11T09:48:54.707Z,31.00
2019-02-11T09:51:39.563Z,31.00
2019-02-11T09:54:20.943Z,31.10
2019-02-11T09:57:02.026Z,31.30
2019-02-11T09:59:42.036Z,31.10
2019-02-11T10:02:21.633Z,30.70
2019-02-11T10:05:00.928Z,30.90
2019-02-11T10:07:39.844Z,31.00
2019-02-11T10:10:20.628Z,30.80
2019-02-11T10:13:00.519Z,30.70
2019-02-11T10:15:40.149Z,30.60
2019-02-11T10:18:19.737Z,30.70
2019-02-11T10:20:58.783Z,30.80
2019-02-11T10:23:39.943Z,30.60
2019-02-11T10:26:21.585Z,30.40
2019-02-11T10:29:01.229Z,30.50
2019-02-11T10:31:40.701Z,30.50
2019-02-11T10:34:20.579Z,30.60
2019-02-11T10:37:03.539Z,30.40
2019-02-11T10:39:43.801Z,30.40
2019-02-11T10:42:23.009Z,30.40
2019-02-11T10:45:02.215Z,30.40
2019-02-11T10:47:41.659Z,30.40
2019-02-11T10:50:22.364Z,30.20
2019-02-11T11:31:19.636Z,29.30
2019-02-11T11:33:58.890Z,29.40
2019-02-11T11:36:39.103Z,29.50
2019-02-11T11:39:25.452Z,29.60
2019-02-11T11:42:04.883Z,29.60
2019-02-11T11:47:45.709Z,29.50
2019-02-11T11:50:24.957Z,29.50
2019-02-11T11:53:05.321Z,29.60
2019-02-11T11:55:45.157Z,29.50
2019-02-11T11:58:28.519Z,29.40
2019-02-11T12:01:10.584Z,29.40
2019-02-11T12:03:50.912Z,29.40
2019-02-11T12:06:32.754Z,29.50
2019-02-11T12:09:12.678Z,29.60
2019-02-11T12:11:53.006Z,29.50
2019-02-11T12:14:34.753Z,29.30
2019-02-11T12:17:14.008Z,29.50
2019-02-11T12:19:55.078Z,29.50
2019-02-11T12:22:33.830Z,29.60
2019-02-11T12:25:14.850Z,29.40
2019-02-11T12:27:58.213Z,29.30
2019-02-11T12:30:38.145Z,29.30
2019-02-11T12:33:18.857Z,29.50
2019-02-11T12:35:58.263Z,29.50
2019-02-11T12:38:38.512Z,29.40
2019-02-11T12:41:21.987Z,29.20
2019-02-11T12:44:02.888Z,29.30
2019-02-11T12:46:44.285Z,29.50
2019-02-11T12:49:23.875Z,29.50
2019-02-11T12:52:03.226Z,29.20
2019-02-11T12:54:42.969Z,29.30
2019-02-11T12:57:23.114Z,29.40
2019-02-11T13:00:03.084Z,29.50
2019-02-11T13:02:45.147Z,29.40
2019-02-11T13:05:43.102Z,29.20
2019-02-11T13:08:07.386Z,29.30
2019-02-11T13:10:47.907Z,29.50
2019-02-11T13:13:31.355Z,29.60
2019-02-11T13:16:10.724Z,29.40
2019-02-11T13:18:50.296Z,29.30
2019-02-11T13:21:29.527Z,29.30
2019-02-11T13:24:09.861Z,29.50
2019-02-11T13:26:50.105Z,29.40
2019-02-11T13:29:29.467Z,29.20
2019-02-11T13:32:15.521Z,29.20
2019-02-11T13:34:56.016Z,29.20
2019-02-11T13:37:35.128Z,29.30
2019-02-11T13:40:14.608Z,29.30
2019-02-11T13:42:54.951Z,29.20
2019-02-11T13:45:34.170Z,29.20
2019-02-11T13:48:15.905Z,29.30
2019-02-11T13:50:59.001Z,29.30
2019-02-11T13:53:44.347Z,29.20
2019-02-11T13:56:27.094Z,29.00
2019-02-11T13:59:08.009Z,28.90
2019-02-11T14:01:48.393Z,29.10
2019-02-11T14:04:28.468Z,29.20
2019-02-11T14:07:08.433Z,29.10
2019-02-11T14:09:48.823Z,29.10
2019-02-11T14:12:29.207Z,29.10
2019-02-11T14:15:09.757Z,29.10
2019-02-11T14:17:50.193Z,29.10
2019-02-11T14:20:34.308Z,29.10
2019-02-11T14:23:18.612Z,29.10
2019-02-11T14:26:00.189Z,29.00
2019-02-11T14:28:49.999Z,29.10
2019-02-11T14:31:39.065Z,29.00
2019-02-11T14:34:23.105Z,28.90
2019-02-11T14:37:04.586Z,28.90
2019-02-11T14:39:45.327Z,29.00
2019-02-11T14:42:26.059Z,29.10
2019-02-11T14:45:06.770Z,28.80
2019-02-11T14:47:50.986Z,28.80
2019-02-11T14:50:30.476Z,28.80
2019-02-11T14:53:50.140Z,29.00
2019-02-11T14:56:50.699Z,29.00
2019-02-11T14:59:33.191Z,28.80
2019-02-11T15:02:30.355Z,28.80
2019-02-11T15:05:39.423Z,28.90
2019-02-11T15:08:22.160Z,29.00
2019-02-11T15:11:02.624Z,28.90
2019-02-11T15:13:47.100Z,28.80
2019-02-11T15:16:28.128Z,28.80
2019-02-11T15:19:08.019Z,28.80
2019-02-11T15:21:51.845Z,28.80
2019-02-11T15:24:32.192Z,28.80
2019-02-11T15:27:17.204Z,28.90
2019-02-11T15:29:52.966Z,28.90
2019-02-11T15:32:32.268Z,28.90
2019-02-11T15:35:14.342Z,28.80
2019-02-11T15:37:54.161Z,28.80
2019-02-11T15:40:34.769Z,28.80
2019-02-11T15:43:15.413Z,28.80
2019-02-11T15:45:56.069Z,28.80
2019-02-11T15:48:42.881Z,28.80
2019-02-11T15:51:20.820Z,28.80
2019-02-11T15:54:02.042Z,28.70
2019-02-11T15:56:41.190Z,28.90
2019-02-11T15:59:20.353Z,28.90
2019-02-11T16:02:03.196Z,28.80
2019-02-11T16:04:42.922Z,28.80
2019-02-11T16:07:22.260Z,28.80
2019-02-11T16:10:01.237Z,28.80
2019-02-11T16:12:43.705Z,28.80
2019-02-11T16:15:23.615Z,28.60
2019-02-11T16:18:03.431Z,28.60
2019-02-11T16:20:43.884Z,28.70
2019-02-11T16:23:24.723Z,28.70
2019-02-11T16:26:04.164Z,28.60
2019-02-11T16:28:44.919Z,28.60
2019-02-11T16:31:25.562Z,28.70
2019-02-11T16:34:08.616Z,28.80
2019-02-11T16:36:51.250Z,28.70
2019-02-11T16:39:33.861Z,28.50
2019-02-11T16:42:16.411Z,28.60
2019-02-11T16:44:59.046Z,28.70
2019-02-11T16:47:39.078Z,28.70
2019-02-11T16:50:20.988Z,28.80
2019-02-11T16:53:01.017Z,28.70
2019-02-11T16:55:44.975Z,28.70
2019-02-11T16:58:28.874Z,28.70
2019-02-11T17:01:10.362Z,28.70
2019-02-11T17:03:49.574Z,28.70
2019-02-11T17:06:28.967Z,28.70
2019-02-11T17:09:09.869Z,28.80
2019-02-11T17:11:51.019Z,28.90
2019-02-11T17:14:32.130Z,28.80
2019-02-11T17:17:12.423Z,28.70
2019-02-11T17:19:52.346Z,28.60
2019-02-11T17:22:33.977Z,28.70
2019-02-11T17:25:13.904Z,28.60
2019-02-11T17:27:55.947Z,28.70
2019-02-11T17:30:35.327Z,28.70
2019-02-11T17:33:15.672Z,28.60
2019-02-11T17:35:55.506Z,28.60
2019-02-11T17:38:36.776Z,28.50
2019-02-11T17:41:16.050Z,28.60
2019-02-11T17:43:55.173Z,28.60
2019-02-11T17:46:34.425Z,28.60
2019-02-11T17:49:17.816Z,28.50
2019-02-11T17:51:55.898Z,28.60
2019-02-11T17:54:35.236Z,28.70
2019-02-11T17:57:15.753Z,28.60
2019-02-11T17:59:55.744Z,28.50
2019-02-11T18:02:36.495Z,28.50
2019-02-11T18:05:15.915Z,28.70
2019-02-11T18:07:57.344Z,28.70
2019-02-11T18:10:36.777Z,28.70
2019-02-11T18:13:16.779Z,28.60
2019-02-11T18:15:56.852Z,28.60
2019-02-11T18:18:35.905Z,28.60
2019-02-11T18:21:15.600Z,28.80
2019-02-11T18:23:55.429Z,28.70
2019-02-11T18:26:36.414Z,28.50
2019-02-11T18:29:17.377Z,28.50
2019-02-11T18:31:57.740Z,28.80
2019-02-11T18:34:37.571Z,28.90
2019-02-11T18:37:17.439Z,29.00
2019-02-11T18:39:59.365Z,28.80
2019-02-11T18:42:39.783Z,28.90
2019-02-11T18:45:20.315Z,29.00
2019-02-11T18:48:02.242Z,29.10
2019-02-11T18:50:44.614Z,29.10
2019-02-11T18:53:23.711Z,28.80
2019-02-11T18:56:03.130Z,28.60
2019-02-11T18:58:45.838Z,28.60
2019-02-11T19:01:25.359Z,28.60
2019-02-11T19:04:05.114Z,28.80
2019-02-11T19:06:44.380Z,28.70
2019-02-11T19:09:23.717Z,28.60
2019-02-11T19:12:02.861Z,28.90
2019-02-11T19:14:44.431Z,28.90
2019-02-11T19:17:23.092Z,28.80
2019-02-11T19:20:02.495Z,28.50
2019-02-11T19:22:42.624Z,28.50
2019-02-11T19:25:22.778Z,28.50
2019-02-11T19:28:01.901Z,28.60
2019-02-11T19:30:42.097Z,28.40
2019-02-11T19:33:23.876Z,28.30
2019-02-11T19:36:02.857Z,28.50
2019-02-11T19:38:43.155Z,28.60
2019-02-11T19:41:21.993Z,28.60
2019-02-11T19:44:01.449Z,28.40
2019-02-11T19:46:40.896Z,28.20
2019-02-11T19:49:20.038Z,28.40
2019-02-11T19:51:59.241Z,28.50
2019-02-11T19:54:39.272Z,28.60
2019-02-11T19:57:18.442Z,28.30
2019-02-11T19:59:57.908Z,28.30
2019-02-11T20:02:37.748Z,28.50
2019-02-11T20:05:17.096Z,28.60
2019-02-11T20:07:56.318Z,28.50
2019-02-11T20:10:35.504Z,28.20
2019-02-11T20:13:14.668Z,28.20
2019-02-11T20:15:53.798Z,28.40
2019-02-11T20:18:32.801Z,28.50
2019-02-11T20:21:12.087Z,28.30
2019-02-11T20:23:51.392Z,28.20
2019-02-11T20:26:31.293Z,28.30
2019-02-11T20:29:10.520Z,28.50
2019-02-11T20:31:49.654Z,28.60
2019-02-11T20:34:29.159Z,28.40
2019-02-11T20:37:08.984Z,28.30
2019-02-11T20:39:48.977Z,28.40
2019-02-11T20:42:28.226Z,28.50
2019-02-11T20:45:08.032Z,28.40
2019-02-11T20:47:48.261Z,28.20
2019-02-11T20:50:27.367Z,28.10
2019-02-11T20:53:08.595Z,28.20
2019-02-11T20:55:52.676Z,28.30
2019-02-11T20:58:31.593Z,28.30
2019-02-11T21:01:10.568Z,28.10
2019-02-11T21:03:49.728Z,28.00
2019-02-11T21:06:28.708Z,28.20
2019-02-11T21:09:08.329Z,28.20
2019-02-11T21:11:49.171Z,28.20
2019-02-11T21:14:29.443Z,28.10
2019-02-11T21:17:09.177Z,27.90
2019-02-11T21:19:48.566Z,28.00
2019-02-11T21:22:27.731Z,28.20
2019-02-11T21:25:08.043Z,28.20
2019-02-11T21:27:47.918Z,28.00
2019-02-11T21:30:27.100Z,27.80
2019-02-11T21:33:06.122Z,28.00
2019-02-11T21:35:44.849Z,28.10
2019-02-11T21:38:23.940Z,28.10
2019-02-11T21:41:03.283Z,27.90
2019-02-11T21:43:42.438Z,27.90
2019-02-11T21:46:21.557Z,28.00
2019-02-11T21:49:00.499Z,28.00
2019-02-11T21:51:39.873Z,28.00
2019-02-11T21:54:19.004Z,27.90
2019-02-11T21:56:58.966Z,27.80
2019-02-11T21:59:39.026Z,28.00
2019-02-11T22:02:18.138Z,28.10
2019-02-11T22:05:01.303Z,28.10
2019-02-11T22:07:40.582Z,28.00
2019-02-11T22:10:19.244Z,27.90
2019-02-11T22:12:59.454Z,28.10
2019-02-11T22:15:38.439Z,28.20
2019-02-11T22:18:17.662Z,28.10
2019-02-11T22:20:57.748Z,27.90
2019-02-11T22:23:37.897Z,27.90
2019-02-11T22:26:17.136Z,28.00
2019-02-11T22:28:56.308Z,28.10
2019-02-11T22:31:35.561Z,28.20
2019-02-11T22:34:14.853Z,28.10
2019-02-11T22:36:57.534Z,27.90
2019-02-11T22:39:37.078Z,27.90
2019-02-11T22:42:16.440Z,28.10
2019-02-11T22:44:55.561Z,28.20
2019-02-11T22:47:37.845Z,28.00
2019-02-11T22:50:17.329Z,27.90
2019-02-11T22:52:56.948Z,28.00
2019-02-11T22:55:36.188Z,28.20
2019-02-11T22:58:16.583Z,28.20
2019-02-11T23:01:04.297Z,27.90
2019-02-11T23:03:44.235Z,27.80
2019-02-11T23:06:23.606Z,28.10
2019-02-11T23:09:02.965Z,28.00
2019-02-11T23:11:43.548Z,28.20
2019-02-11T23:14:22.593Z,28.00
2019-02-11T23:17:01.368Z,28.00
2019-02-11T23:19:41.268Z,27.80
2019-02-11T23:22:20.230Z,27.90
2019-02-11T23:24:59.975Z,27.80
2019-02-11T23:27:40.641Z,27.80
2019-02-11T23:30:20.597Z,27.80
2019-02-11T23:33:01.890Z,27.80
2019-02-11T23:35:42.147Z,27.70
2019-02-11T23:38:21.820Z,27.70
2019-02-11T23:41:00.986Z,27.70
2019-02-11T23:43:40.730Z,27.70
2019-02-11T23:46:19.968Z,27.90
2019-02-11T23:48:59.094Z,27.80
2019-02-11T23:51:38.422Z,28.00
2019-02-11T23:54:17.527Z,27.90
2019-02-11T23:56:56.510Z,27.90
2019-02-11T23:59:35.518Z,27.80
